sensor_id;sensor_type;location;lat;lon;timestamp;pressure;altitude;pressure_sealevel;temperature;humidity
47556;BME280;33291;46.222;26.460;2023-03-04T00:02:08;96481.50;;;-0.36;89.03
47556;BME280;33291;46.222;26.460;2023-03-04T00:04:34;96476.66;;;-0.42;88.83
47556;BME280;33291;46.222;26.460;2023-03-04T00:06:59;96466.41;;;-0.42;88.67
47556;BME280;33291;46.222;26.460;2023-03-04T00:09:25;96468.84;;;-0.39;88.93
47556;BME280;33291;46.222;26.460;2023-03-04T00:11:51;96470.13;;;-0.30;89.20
47556;BME280;33291;46.222;26.460;2023-03-04T00:14:16;96469.16;;;-0.28;88.89
47556;BME280;33291;46.222;26.460;2023-03-04T00:16:42;96465.75;;;-0.28;88.87
47556;BME280;33291;46.222;26.460;2023-03-04T00:19:09;96453.47;;;-0.39;88.72
47556;BME280;33291;46.222;26.460;2023-03-04T00:21:34;96438.56;;;-0.48;88.72
47556;BME280;33291;46.222;26.460;2023-03-04T00:24:00;96455.81;;;-0.34;88.76
47556;BME280;33291;46.222;26.460;2023-03-04T00:26:25;96447.44;;;-0.38;88.98
47556;BME280;33291;46.222;26.460;2023-03-04T00:28:51;96456.63;;;-0.34;89.06
47556;BME280;33291;46.222;26.460;2023-03-04T00:31:16;96450.00;;;-0.38;89.24
47556;BME280;33291;46.222;26.460;2023-03-04T00:33:42;96452.72;;;-0.41;89.07
47556;BME280;33291;46.222;26.460;2023-03-04T00:36:09;96435.84;;;-0.45;89.00
47556;BME280;33291;46.222;26.460;2023-03-04T00:38:34;96439.97;;;-0.43;89.02
47556;BME280;33291;46.222;26.460;2023-03-04T00:41:00;96430.03;;;-0.49;88.75
47556;BME280;33291;46.222;26.460;2023-03-04T00:43:26;96431.03;;;-0.51;88.85
47556;BME280;33291;46.222;26.460;2023-03-04T00:45:51;96430.88;;;-0.48;89.12
47556;BME280;33291;46.222;26.460;2023-03-04T00:48:16;96424.09;;;-0.49;89.15
47556;BME280;33291;46.222;26.460;2023-03-04T00:50:43;96421.91;;;-0.57;89.68
47556;BME280;33291;46.222;26.460;2023-03-04T00:53:09;96390.06;;;-0.69;89.76
47556;BME280;33291;46.222;26.460;2023-03-04T00:55:35;96409.63;;;-0.50;89.96
47556;BME280;33291;46.222;26.460;2023-03-04T00:58:00;96416.34;;;-0.48;89.81
47556;BME280;33291;46.222;26.460;2023-03-04T01:00:26;96412.06;;;-0.47;90.01
47556;BME280;33291;46.222;26.460;2023-03-04T01:02:52;96398.06;;;-0.58;89.44
47556;BME280;33291;46.222;26.460;2023-03-04T01:05:17;96392.31;;;-0.63;89.80
47556;BME280;33291;46.222;26.460;2023-03-04T01:07:43;96393.09;;;-0.61;89.90
47556;BME280;33291;46.222;26.460;2023-03-04T01:10:12;96391.44;;;-0.62;90.29
47556;BME280;33291;46.222;26.460;2023-03-04T01:12:37;96391.22;;;-0.57;89.89
47556;BME280;33291;46.222;26.460;2023-03-04T01:15:05;96395.50;;;-0.58;89.70
47556;BME280;33291;46.222;26.460;2023-03-04T01:17:30;96387.63;;;-0.72;89.99
47556;BME280;33291;46.222;26.460;2023-03-04T01:19:56;96397.72;;;-0.69;90.11
47556;BME280;33291;46.222;26.460;2023-03-04T01:22:21;96385.06;;;-0.72;90.24
47556;BME280;33291;46.222;26.460;2023-03-04T01:24:47;96374.94;;;-0.74;90.16
47556;BME280;33291;46.222;26.460;2023-03-04T01:27:12;96378.16;;;-0.70;90.34
47556;BME280;33291;46.222;26.460;2023-03-04T01:29:38;96370.63;;;-0.73;90.12
47556;BME280;33291;46.222;26.460;2023-03-04T01:32:03;96361.47;;;-0.77;90.17
47556;BME280;33291;46.222;26.460;2023-03-04T01:34:29;96374.78;;;-0.70;90.21
47556;BME280;33291;46.222;26.460;2023-03-04T01:36:55;96353.78;;;-0.77;90.08
47556;BME280;33291;46.222;26.460;2023-03-04T01:39:20;96369.72;;;-0.72;90.38
47556;BME280;33291;46.222;26.460;2023-03-04T01:41:46;96369.66;;;-0.70;90.29
47556;BME280;33291;46.222;26.460;2023-03-04T01:44:11;96364.69;;;-0.74;90.37
47556;BME280;33291;46.222;26.460;2023-03-04T01:46:39;96367.03;;;-0.69;90.18
47556;BME280;33291;46.222;26.460;2023-03-04T01:49:09;96340.44;;;-0.84;89.75
47556;BME280;33291;46.222;26.460;2023-03-04T01:51:36;96365.50;;;-0.73;90.29
47556;BME280;33291;46.222;26.460;2023-03-04T01:54:02;96351.31;;;-0.79;90.35
47556;BME280;33291;46.222;26.460;2023-03-04T01:56:29;96360.41;;;-0.73;90.11
47556;BME280;33291;46.222;26.460;2023-03-04T01:59:20;96363.03;;;-0.75;89.92
47556;BME280;33291;46.222;26.460;2023-03-04T02:01:48;96359.88;;;-0.80;89.91
47556;BME280;33291;46.222;26.460;2023-03-04T02:04:16;96360.09;;;-0.84;89.67
47556;BME280;33291;46.222;26.460;2023-03-04T02:06:43;96357.53;;;-0.84;89.63
47556;BME280;33291;46.222;26.460;2023-03-04T02:09:09;96337.34;;;-0.91;89.44
47556;BME280;33291;46.222;26.460;2023-03-04T02:11:36;96356.00;;;-0.88;89.68
47556;BME280;33291;46.222;26.460;2023-03-04T02:14:03;96329.50;;;-1.05;89.70
47556;BME280;33291;46.222;26.460;2023-03-04T02:16:29;96355.47;;;-0.95;89.79
47556;BME280;33291;46.222;26.460;2023-03-04T02:18:55;96342.22;;;-1.03;89.47
47556;BME280;33291;46.222;26.460;2023-03-04T02:21:32;96331.53;;;-1.31;89.90
47556;BME280;33291;46.222;26.460;2023-03-04T02:24:17;96346.19;;;-1.15;90.43
47556;BME280;33291;46.222;26.460;2023-03-04T02:26:44;96322.75;;;-1.25;90.02
47556;BME280;33291;46.222;26.460;2023-03-04T02:29:12;96335.19;;;-1.17;89.89
47556;BME280;33291;46.222;26.460;2023-03-04T02:31:40;96337.13;;;-1.22;89.84
47556;BME280;33291;46.222;26.460;2023-03-04T02:36:36;96349.97;;;-1.24;90.15
47556;BME280;33291;46.222;26.460;2023-03-04T02:41:49;96335.53;;;-1.25;90.76
47556;BME280;33291;46.222;26.460;2023-03-04T02:44:36;96340.72;;;-1.27;90.74
47556;BME280;33291;46.222;26.460;2023-03-04T02:47:04;96340.66;;;-1.25;90.57
47556;BME280;33291;46.222;26.460;2023-03-04T02:49:32;96321.78;;;-1.22;90.90
47556;BME280;33291;46.222;26.460;2023-03-04T02:52:09;96327.88;;;-1.25;90.75
47556;BME280;33291;46.222;26.460;2023-03-04T02:54:36;96313.09;;;-1.18;90.91
47556;BME280;33291;46.222;26.460;2023-03-04T02:57:06;96318.22;;;-1.18;90.37
47556;BME280;33291;46.222;26.460;2023-03-04T02:59:31;96306.47;;;-1.22;90.59
47556;BME280;33291;46.222;26.460;2023-03-04T03:01:57;96311.72;;;-1.26;90.81
47556;BME280;33291;46.222;26.460;2023-03-04T03:04:23;96310.06;;;-1.27;91.11
47556;BME280;33291;46.222;26.460;2023-03-04T03:06:50;96299.22;;;-1.32;91.24
47556;BME280;33291;46.222;26.460;2023-03-04T03:09:16;96300.03;;;-1.31;91.50
47556;BME280;33291;46.222;26.460;2023-03-04T03:11:42;96304.25;;;-1.30;90.63
47556;BME280;33291;46.222;26.460;2023-03-04T03:14:07;96307.84;;;-1.34;91.13
47556;BME280;33291;46.222;26.460;2023-03-04T03:16:33;96286.03;;;-1.41;90.92
47556;BME280;33291;46.222;26.460;2023-03-04T03:18:59;96307.31;;;-1.41;90.94
47556;BME280;33291;46.222;26.460;2023-03-04T03:21:24;96310.00;;;-1.44;91.02
47556;BME280;33291;46.222;26.460;2023-03-04T03:23:50;96299.72;;;-1.42;91.24
47556;BME280;33291;46.222;26.460;2023-03-04T03:26:16;96303.16;;;-1.44;91.40
47556;BME280;33291;46.222;26.460;2023-03-04T03:28:41;96300.63;;;-1.44;91.18
47556;BME280;33291;46.222;26.460;2023-03-04T03:31:07;96304.06;;;-1.45;90.82
47556;BME280;33291;46.222;26.460;2023-03-04T03:33:33;96290.06;;;-1.55;90.93
47556;BME280;33291;46.222;26.460;2023-03-04T03:35:59;96305.19;;;-1.50;90.72
47556;BME280;33291;46.222;26.460;2023-03-04T03:38:25;96244.44;;;-1.82;90.61
47556;BME280;33291;46.222;26.460;2023-03-04T03:40:51;96291.41;;;-1.48;90.85
47556;BME280;33291;46.222;26.460;2023-03-04T03:43:17;96295.63;;;-1.47;90.92
47556;BME280;33291;46.222;26.460;2023-03-04T03:45:43;96271.25;;;-1.54;90.70
47556;BME280;33291;46.222;26.460;2023-03-04T03:48:08;96285.63;;;-1.51;91.10
47556;BME280;33291;46.222;26.460;2023-03-04T03:50:34;96277.97;;;-1.51;91.55
47556;BME280;33291;46.222;26.460;2023-03-04T03:52:59;96283.22;;;-1.54;91.54
47556;BME280;33291;46.222;26.460;2023-03-04T03:55:25;96277.34;;;-1.56;92.17
47556;BME280;33291;46.222;26.460;2023-03-04T03:57:51;96280.53;;;-1.51;93.01
47556;BME280;33291;46.222;26.460;2023-03-04T04:00:17;96289.06;;;-1.52;92.84
47556;BME280;33291;46.222;26.460;2023-03-04T04:02:43;96273.69;;;-1.51;92.96
47556;BME280;33291;46.222;26.460;2023-03-04T04:05:08;96273.97;;;-1.57;93.06
47556;BME280;33291;46.222;26.460;2023-03-04T04:07:35;96269.56;;;-1.53;92.95
47556;BME280;33291;46.222;26.460;2023-03-04T04:10:02;96275.28;;;-1.48;92.75
47556;BME280;33291;46.222;26.460;2023-03-04T04:12:27;96272.66;;;-1.47;92.78
47556;BME280;33291;46.222;26.460;2023-03-04T04:14:53;96273.75;;;-1.52;92.90
47556;BME280;33291;46.222;26.460;2023-03-04T04:17:18;96264.44;;;-1.53;93.11
47556;BME280;33291;46.222;26.460;2023-03-04T04:19:44;96265.06;;;-1.48;92.77
47556;BME280;33291;46.222;26.460;2023-03-04T04:22:14;96277.75;;;-1.47;92.74
47556;BME280;33291;46.222;26.460;2023-03-04T04:24:40;96256.66;;;-1.50;92.54
47556;BME280;33291;46.222;26.460;2023-03-04T04:27:06;96270.03;;;-1.45;92.38
47556;BME280;33291;46.222;26.460;2023-03-04T04:29:31;96266.09;;;-1.52;92.27
47556;BME280;33291;46.222;26.460;2023-03-04T04:31:57;96248.63;;;-1.62;92.66
47556;BME280;33291;46.222;26.460;2023-03-04T04:34:23;96267.25;;;-1.59;93.04
47556;BME280;33291;46.222;26.460;2023-03-04T04:36:48;96246.44;;;-1.69;93.23
47556;BME280;33291;46.222;26.460;2023-03-04T04:39:14;96254.78;;;-1.66;93.41
47556;BME280;33291;46.222;26.460;2023-03-04T04:41:41;96254.63;;;-1.63;93.20
47556;BME280;33291;46.222;26.460;2023-03-04T04:44:07;96235.53;;;-1.73;93.18
47556;BME280;33291;46.222;26.460;2023-03-04T04:46:33;96258.84;;;-1.62;93.79
47556;BME280;33291;46.222;26.460;2023-03-04T04:49:00;96243.00;;;-1.68;93.40
47556;BME280;33291;46.222;26.460;2023-03-04T04:51:25;96253.88;;;-1.65;92.91
47556;BME280;33291;46.222;26.460;2023-03-04T04:53:51;96245.47;;;-1.67;93.07
47556;BME280;33291;46.222;26.460;2023-03-04T04:56:20;96243.00;;;-1.68;92.76
47556;BME280;33291;46.222;26.460;2023-03-04T04:58:46;96260.50;;;-1.61;93.15
47556;BME280;33291;46.222;26.460;2023-03-04T05:01:13;96252.06;;;-1.63;92.86
47556;BME280;33291;46.222;26.460;2023-03-04T05:03:39;96237.94;;;-1.70;92.76
47556;BME280;33291;46.222;26.460;2023-03-04T05:06:05;96248.78;;;-1.65;93.09
47556;BME280;33291;46.222;26.460;2023-03-04T05:08:32;96259.00;;;-1.65;92.85
47556;BME280;33291;46.222;26.460;2023-03-04T05:10:57;96244.97;;;-1.75;92.64
47556;BME280;33291;46.222;26.460;2023-03-04T05:13:23;96249.94;;;-1.72;92.86
47556;BME280;33291;46.222;26.460;2023-03-04T05:15:53;96259.41;;;-1.74;92.82
47556;BME280;33291;46.222;26.460;2023-03-04T05:18:20;96258.44;;;-1.71;93.00
47556;BME280;33291;46.222;26.460;2023-03-04T05:20:50;96250.88;;;-1.73;93.08
47556;BME280;33291;46.222;26.460;2023-03-04T05:23:16;96235.75;;;-1.77;92.72
47556;BME280;33291;46.222;26.460;2023-03-04T05:25:41;96248.31;;;-1.73;92.83
47556;BME280;33291;46.222;26.460;2023-03-04T05:28:07;96262.28;;;-1.63;93.31
47556;BME280;33291;46.222;26.460;2023-03-04T05:30:40;96257.69;;;-1.54;93.19
47556;BME280;33291;46.222;26.460;2023-03-04T05:33:06;96252.28;;;-1.48;92.98
47556;BME280;33291;46.222;26.460;2023-03-04T05:35:37;96249.28;;;-1.39;93.11
47556;BME280;33291;46.222;26.460;2023-03-04T05:38:05;96257.41;;;-1.31;92.60
47556;BME280;33291;46.222;26.460;2023-03-04T05:40:31;96250.25;;;-1.22;91.95
47556;BME280;33291;46.222;26.460;2023-03-04T05:42:57;96249.66;;;-1.10;91.83
47556;BME280;33291;46.222;26.460;2023-03-04T05:45:23;96249.06;;;-0.98;91.27
47556;BME280;33291;46.222;26.460;2023-03-04T05:47:49;96254.19;;;-0.80;90.30
47556;BME280;33291;46.222;26.460;2023-03-04T05:50:15;96245.75;;;-0.65;89.47
47556;BME280;33291;46.222;26.460;2023-03-04T05:52:40;96226.50;;;-0.55;88.94
47556;BME280;33291;46.222;26.460;2023-03-04T05:55:06;96246.91;;;-0.37;87.67
47556;BME280;33291;46.222;26.460;2023-03-04T05:57:32;96258.13;;;-0.22;87.73
47556;BME280;33291;46.222;26.460;2023-03-04T05:59:57;96252.19;;;-0.23;87.44
47556;BME280;33291;46.222;26.460;2023-03-04T06:02:23;96257.16;;;-0.20;87.46
47556;BME280;33291;46.222;26.460;2023-03-04T06:04:48;96257.16;;;-0.20;87.70
47556;BME280;33291;46.222;26.460;2023-03-04T06:07:14;96240.22;;;-0.40;88.40
47556;BME280;33291;46.222;26.460;2023-03-04T06:09:39;96270.34;;;-0.27;88.70
47556;BME280;33291;46.222;26.460;2023-03-04T06:12:05;96265.50;;;-0.33;89.28
47556;BME280;33291;46.222;26.460;2023-03-04T06:14:31;96260.09;;;-0.45;89.57
47556;BME280;33291;46.222;26.460;2023-03-04T06:16:56;96259.44;;;-0.48;89.86
47556;BME280;33291;46.222;26.460;2023-03-04T06:19:22;96264.84;;;-0.37;90.34
47556;BME280;33291;46.222;26.460;2023-03-04T06:21:47;96268.28;;;-0.38;90.02
47556;BME280;33291;46.222;26.460;2023-03-04T06:24:13;96239.72;;;-0.46;90.27
47556;BME280;33291;46.222;26.460;2023-03-04T06:26:38;96259.09;;;-0.25;90.33
47556;BME280;33291;46.222;26.460;2023-03-04T06:29:05;96255.31;;;-0.17;90.56
47556;BME280;33291;46.222;26.460;2023-03-04T06:31:30;96260.03;;;-0.10;90.12
47556;BME280;33291;46.222;26.460;2023-03-04T06:33:56;96260.34;;;0.02;89.69
47556;BME280;33291;46.222;26.460;2023-03-04T06:36:21;96240.75;;;0.01;90.14
47556;BME280;33291;46.222;26.460;2023-03-04T06:38:47;96251.25;;;0.12;89.77
47556;BME280;33291;46.222;26.460;2023-03-04T06:41:12;96252.00;;;0.14;89.61
47556;BME280;33291;46.222;26.460;2023-03-04T06:43:38;96259.03;;;0.26;90.13
47556;BME280;33291;46.222;26.460;2023-03-04T06:46:05;96250.94;;;0.34;90.44
47556;BME280;33291;46.222;26.460;2023-03-04T06:48:31;96246.13;;;0.44;89.83
47556;BME280;33291;46.222;26.460;2023-03-04T06:50:57;96251.94;;;0.47;89.73
47556;BME280;33291;46.222;26.460;2023-03-04T06:53:22;96251.44;;;0.57;89.76
47556;BME280;33291;46.222;26.460;2023-03-04T06:55:47;96254.22;;;0.68;89.98
47556;BME280;33291;46.222;26.460;2023-03-04T06:58:14;96259.53;;;0.81;90.10
47556;BME280;33291;46.222;26.460;2023-03-04T07:00:42;96237.81;;;0.86;90.09
47556;BME280;33291;46.222;26.460;2023-03-04T07:03:09;96246.72;;;1.11;88.57
47556;BME280;33291;46.222;26.460;2023-03-04T07:05:35;96238.09;;;1.12;89.43
47556;BME280;33291;46.222;26.460;2023-03-04T07:08:00;96245.19;;;1.23;88.33
47556;BME280;33291;46.222;26.460;2023-03-04T07:10:26;96239.47;;;1.34;87.25
47556;BME280;33291;46.222;26.460;2023-03-04T07:12:51;96228.25;;;1.35;87.35
47556;BME280;33291;46.222;26.460;2023-03-04T07:15:17;96239.09;;;1.54;87.77
47556;BME280;33291;46.222;26.460;2023-03-04T07:17:42;96235.47;;;1.73;86.76
47556;BME280;33291;46.222;26.460;2023-03-04T07:20:08;96233.72;;;1.88;84.51
47556;BME280;33291;46.222;26.460;2023-03-04T07:22:34;96224.09;;;2.06;83.72
47556;BME280;33291;46.222;26.460;2023-03-04T07:24:59;96215.34;;;2.23;83.68
47556;BME280;33291;46.222;26.460;2023-03-04T07:27:24;96226.97;;;2.43;83.23
47556;BME280;33291;46.222;26.460;2023-03-04T07:29:50;96214.78;;;2.59;82.45
47556;BME280;33291;46.222;26.460;2023-03-04T07:32:15;96224.00;;;2.76;80.04
47556;BME280;33291;46.222;26.460;2023-03-04T07:34:41;96210.81;;;2.95;78.99
47556;BME280;33291;46.222;26.460;2023-03-04T07:37:06;96212.63;;;3.20;76.00
47556;BME280;33291;46.222;26.460;2023-03-04T07:39:32;96213.78;;;3.55;74.69
47556;BME280;33291;46.222;26.460;2023-03-04T07:41:57;96219.47;;;3.86;72.26
47556;BME280;33291;46.222;26.460;2023-03-04T07:44:23;96209.34;;;4.08;71.72
47556;BME280;33291;46.222;26.460;2023-03-04T07:46:48;96209.28;;;4.34;69.88
47556;BME280;33291;46.222;26.460;2023-03-04T07:49:14;96204.00;;;4.60;67.62
47556;BME280;33291;46.222;26.460;2023-03-04T07:51:39;96204.97;;;4.83;65.25
47556;BME280;33291;46.222;26.460;2023-03-04T07:54:05;96202.59;;;5.04;63.69
47556;BME280;33291;46.222;26.460;2023-03-04T07:56:32;96178.41;;;5.05;63.24
47556;BME280;33291;46.222;26.460;2023-03-04T07:58:58;96210.88;;;5.32;64.00
47556;BME280;33291;46.222;26.460;2023-03-04T08:01:27;96199.88;;;5.41;60.85
47556;BME280;33291;46.222;26.460;2023-03-04T08:03:53;96195.78;;;5.50;61.62
47556;BME280;33291;46.222;26.460;2023-03-04T08:06:20;96186.28;;;5.73;59.95
47556;BME280;33291;46.222;26.460;2023-03-04T08:08:47;96189.94;;;5.82;59.78
47556;BME280;33291;46.222;26.460;2023-03-04T08:11:15;96181.88;;;5.98;60.37
47556;BME280;33291;46.222;26.460;2023-03-04T08:13:41;96184.19;;;6.23;59.00
47556;BME280;33291;46.222;26.460;2023-03-04T08:16:07;96168.44;;;6.27;58.17
47556;BME280;33291;46.222;26.460;2023-03-04T08:18:34;96177.81;;;6.50;57.52
47556;BME280;33291;46.222;26.460;2023-03-04T08:21:00;96170.00;;;6.62;56.97
47556;BME280;33291;46.222;26.460;2023-03-04T08:23:26;96171.34;;;6.77;56.72
47556;BME280;33291;46.222;26.460;2023-03-04T08:25:52;96176.69;;;6.97;55.10
47556;BME280;33291;46.222;26.460;2023-03-04T08:28:17;96168.91;;;7.08;54.10
47556;BME280;33291;46.222;26.460;2023-03-04T08:30:43;96164.16;;;7.13;53.12
47556;BME280;33291;46.222;26.460;2023-03-04T08:33:09;96150.75;;;7.08;53.71
47556;BME280;33291;46.222;26.460;2023-03-04T08:35:37;96166.69;;;7.24;54.43
47556;BME280;33291;46.222;26.460;2023-03-04T08:38:03;96154.72;;;7.33;54.00
47556;BME280;33291;46.222;26.460;2023-03-04T08:40:29;96160.28;;;7.50;52.91
47556;BME280;33291;46.222;26.460;2023-03-04T08:42:55;96161.28;;;7.58;51.90
47556;BME280;33291;46.222;26.460;2023-03-04T08:45:20;96157.63;;;7.61;51.32
47556;BME280;33291;46.222;26.460;2023-03-04T08:47:46;96155.59;;;7.64;52.35
47556;BME280;33291;46.222;26.460;2023-03-04T08:50:11;96160.53;;;7.68;51.54
47556;BME280;33291;46.222;26.460;2023-03-04T08:52:37;96160.00;;;7.74;50.97
47556;BME280;33291;46.222;26.460;2023-03-04T08:55:02;96159.63;;;7.78;51.11
47556;BME280;33291;46.222;26.460;2023-03-04T08:57:28;96152.84;;;7.87;51.21
47556;BME280;33291;46.222;26.460;2023-03-04T08:59:54;96153.44;;;8.00;50.40
47556;BME280;33291;46.222;26.460;2023-03-04T09:02:19;96112.81;;;7.80;49.31
47556;BME280;33291;46.222;26.460;2023-03-04T09:04:45;96153.31;;;8.12;50.30
47556;BME280;33291;46.222;26.460;2023-03-04T09:07:10;96150.66;;;8.33;50.22
47556;BME280;33291;46.222;26.460;2023-03-04T09:09:36;96138.28;;;8.46;48.80
47556;BME280;33291;46.222;26.460;2023-03-04T09:12:01;96139.53;;;8.52;48.08
47556;BME280;33291;46.222;26.460;2023-03-04T09:14:27;96139.66;;;8.60;47.81
47556;BME280;33291;46.222;26.460;2023-03-04T09:16:53;96134.47;;;8.60;47.53
47556;BME280;33291;46.222;26.460;2023-03-04T09:19:18;96133.91;;;8.66;47.26
47556;BME280;33291;46.222;26.460;2023-03-04T09:21:44;96139.41;;;8.73;47.57
47556;BME280;33291;46.222;26.460;2023-03-04T09:24:09;96142.94;;;8.82;47.24
47556;BME280;33291;46.222;26.460;2023-03-04T09:26:34;96127.91;;;8.76;46.56
47556;BME280;33291;46.222;26.460;2023-03-04T09:29:01;96140.22;;;8.83;46.45
47556;BME280;33291;46.222;26.460;2023-03-04T09:31:27;96133.66;;;8.79;46.66
47556;BME280;33291;46.222;26.460;2023-03-04T09:33:55;96129.56;;;8.77;46.85
47556;BME280;33291;46.222;26.460;2023-03-04T09:36:21;96130.09;;;8.80;46.97
47556;BME280;33291;46.222;26.460;2023-03-04T09:38:47;96119.28;;;8.85;46.65
47556;BME280;33291;46.222;26.460;2023-03-04T09:41:19;96112.88;;;8.89;46.29
47556;BME280;33291;46.222;26.460;2023-03-04T09:43:47;96098.66;;;8.93;46.25
47556;BME280;33291;46.222;26.460;2023-03-04T09:46:17;96105.75;;;9.01;46.48
47556;BME280;33291;46.222;26.460;2023-03-04T09:48:51;96100.16;;;9.05;46.35
47556;BME280;33291;46.222;26.460;2023-03-04T09:56:44;96101.09;;;9.14;45.74
47556;BME280;33291;46.222;26.460;2023-03-04T09:59:39;96099.03;;;9.18;45.80
47556;BME280;33291;46.222;26.460;2023-03-04T10:02:36;96093.66;;;9.29;46.02
47556;BME280;33291;46.222;26.460;2023-03-04T10:05:06;96097.91;;;9.40;45.18
47556;BME280;33291;46.222;26.460;2023-03-04T10:07:40;96092.69;;;9.40;44.66
47556;BME280;33291;46.222;26.460;2023-03-04T10:10:21;96086.94;;;9.46;45.38
47556;BME280;33291;46.222;26.460;2023-03-04T10:12:50;96090.19;;;9.48;44.87
47556;BME280;33291;46.222;26.460;2023-03-04T10:15:39;96087.75;;;9.47;45.03
47556;BME280;33291;46.222;26.460;2023-03-04T10:18:18;96082.97;;;9.42;45.23
47556;BME280;33291;46.222;26.460;2023-03-04T10:21:14;96073.94;;;9.46;45.57
47556;BME280;33291;46.222;26.460;2023-03-04T10:23:42;96044.41;;;9.37;45.49
47556;BME280;33291;46.222;26.460;2023-03-04T10:26:16;96069.78;;;9.53;45.18
47556;BME280;33291;46.222;26.460;2023-03-04T10:28:43;96067.81;;;9.37;45.56
47556;BME280;33291;46.222;26.460;2023-03-04T10:31:31;96071.34;;;9.36;45.74
47556;BME280;33291;46.222;26.460;2023-03-04T10:34:04;96056.97;;;9.42;46.52
47556;BME280;33291;46.222;26.460;2023-03-04T10:39:10;96061.69;;;9.56;45.66
47556;BME280;33291;46.222;26.460;2023-03-04T10:41:41;96066.50;;;9.61;44.82
47556;BME280;33291;46.222;26.460;2023-03-04T10:46:37;96057.50;;;9.46;44.38
47556;BME280;33291;46.222;26.460;2023-03-04T10:49:02;96053.13;;;9.46;44.96
47556;BME280;33291;46.222;26.460;2023-03-04T10:51:29;96041.75;;;9.47;44.79
47556;BME280;33291;46.222;26.460;2023-03-04T10:54:07;96042.97;;;9.53;45.08
47556;BME280;33291;46.222;26.460;2023-03-04T10:56:40;96042.94;;;9.63;44.82
47556;BME280;33291;46.222;26.460;2023-03-04T11:02:34;96035.53;;;9.58;44.35
47556;BME280;33291;46.222;26.460;2023-03-04T11:05:20;96042.97;;;9.53;44.53
47556;BME280;33291;46.222;26.460;2023-03-04T11:07:51;96029.69;;;9.56;44.46
47556;BME280;33291;46.222;26.460;2023-03-04T11:10:43;96031.69;;;9.62;44.67
47556;BME280;33291;46.222;26.460;2023-03-04T11:13:16;96015.81;;;9.65;45.04
47556;BME280;33291;46.222;26.460;2023-03-04T11:18:37;96014.66;;;9.77;44.85
47556;BME280;33291;46.222;26.460;2023-03-04T11:21:07;96008.50;;;9.78;44.55
47556;BME280;33291;46.222;26.460;2023-03-04T11:26:14;95989.19;;;9.81;44.56
47556;BME280;33291;46.222;26.460;2023-03-04T11:28:46;96002.63;;;9.76;43.65
47556;BME280;33291;46.222;26.460;2023-03-04T11:31:19;96002.91;;;9.73;43.70
47556;BME280;33291;46.222;26.460;2023-03-04T11:33:54;95991.97;;;9.70;44.02
47556;BME280;33291;46.222;26.460;2023-03-04T11:39:12;95987.91;;;9.67;43.32
47556;BME280;33291;46.222;26.460;2023-03-04T11:41:45;95998.66;;;9.72;43.52
47556;BME280;33291;46.222;26.460;2023-03-04T11:44:12;95981.81;;;9.76;42.58
47556;BME280;33291;46.222;26.460;2023-03-04T12:06:21;95943.25;;;10.70;40.25
47556;BME280;33291;46.222;26.460;2023-03-04T12:22:41;95916.09;;;10.73;39.64
47556;BME280;33291;46.222;26.460;2023-03-04T12:33:06;95894.59;;;11.05;39.66
47556;BME280;33291;46.222;26.460;2023-03-04T12:52:12;95876.16;;;10.98;37.90
47556;BME280;33291;46.222;26.460;2023-03-04T12:54:45;95875.81;;;10.93;36.16
47556;BME280;33291;46.222;26.460;2023-03-04T12:57:20;95871.75;;;10.91;36.66
47556;BME280;33291;46.222;26.460;2023-03-04T12:59:58;95862.97;;;10.92;36.74
47556;BME280;33291;46.222;26.460;2023-03-04T13:19:44;95854.22;;;10.40;38.09
47556;BME280;33291;46.222;26.460;2023-03-04T13:25:41;95848.25;;;10.48;36.66
47556;BME280;33291;46.222;26.460;2023-03-04T13:43:37;95804.09;;;10.20;37.12
47556;BME280;33291;46.222;26.460;2023-03-04T13:56:40;95802.00;;;10.42;37.08
47556;BME280;33291;46.222;26.460;2023-03-04T14:03:59;95800.22;;;10.51;36.76
47556;BME280;33291;46.222;26.460;2023-03-04T14:06:40;95787.25;;;10.59;36.92
47556;BME280;33291;46.222;26.460;2023-03-04T14:09:13;95785.22;;;10.79;36.32
47556;BME280;33291;46.222;26.460;2023-03-04T14:11:39;95793.63;;;11.15;35.83
47556;BME280;33291;46.222;26.460;2023-03-04T14:14:17;95781.97;;;11.94;34.33
47556;BME280;33291;46.222;26.460;2023-03-04T14:17:04;95768.00;;;13.45;32.04
47556;BME280;33291;46.222;26.460;2023-03-04T14:19:52;95770.66;;;14.66;30.14
47556;BME280;33291;46.222;26.460;2023-03-04T14:22:36;95754.13;;;15.81;28.04
47556;BME280;33291;46.222;26.460;2023-03-04T14:25:24;95745.31;;;16.59;27.06
47556;BME280;33291;46.222;26.460;2023-03-04T14:28:19;95750.69;;;17.41;26.24
47556;BME280;33291;46.222;26.460;2023-03-04T14:30:55;95739.00;;;18.10;25.45
47556;BME280;33291;46.222;26.460;2023-03-04T14:33:27;95745.22;;;18.50;24.79
47556;BME280;33291;46.222;26.460;2023-03-04T14:35:55;95732.47;;;18.98;24.24
47556;BME280;33291;46.222;26.460;2023-03-04T14:41:00;95725.44;;;19.56;23.55
47556;BME280;33291;46.222;26.460;2023-03-04T14:43:28;95713.25;;;20.05;23.18
47556;BME280;33291;46.222;26.460;2023-03-04T14:45:57;95724.00;;;20.11;22.77
47556;BME280;33291;46.222;26.460;2023-03-04T14:48:31;95722.13;;;20.36;22.58
47556;BME280;33291;46.222;26.460;2023-03-04T14:50:58;95730.03;;;20.80;22.57
47556;BME280;33291;46.222;26.460;2023-03-04T14:53:27;95732.56;;;19.17;23.70
47556;BME280;33291;46.222;26.460;2023-03-04T14:56:09;95740.91;;;16.66;26.58
47556;BME280;33291;46.222;26.460;2023-03-04T14:58:52;95733.75;;;15.19;28.81
47556;BME280;33291;46.222;26.460;2023-03-04T15:01:21;95739.06;;;13.99;30.68
47556;BME280;33291;46.222;26.460;2023-03-04T15:06:31;95736.22;;;12.70;32.94
47556;BME280;33291;46.222;26.460;2023-03-04T15:09:00;95727.22;;;12.33;34.12
47556;BME280;33291;46.222;26.460;2023-03-04T15:11:31;95731.56;;;12.01;34.79
47556;BME280;33291;46.222;26.460;2023-03-04T15:13:59;95736.81;;;11.60;35.35
47556;BME280;33291;46.222;26.460;2023-03-04T15:16:28;95725.06;;;11.23;36.36
47556;BME280;33291;46.222;26.460;2023-03-04T15:21:29;95722.06;;;10.85;37.31
47556;BME280;33291;46.222;26.460;2023-03-04T15:23:55;95716.00;;;10.60;37.65